Terminal Aerodrome Forecast
Issued by NWS Brownsville, TX

Home | Current Version | Previous Version | Text Only | Print | Product List | Glossary On
Versions: 1 2 3 4 5 6 7 8 9 10 11 12 13 14 15 16 17 18 19 20 21 22 23 24 25 26 27 28 29 30
000
FTUS44 KBRO 041410 AAB
TAFBRO
TAF AMD
KBRO 041410Z 0414/0512 34008KT P6SM OVC004
      TEMPO 0418/0421 -TSRA OVC004CB
     FM050000 32012KT 4SM -RA BR OVC008
     FM050600 30014G20KT 5SM BR OVC010=

USA.gov is the U.S. government's official web portal to all federal, state and local government web resources and services.